Time;durP1;ratioP1;P1;durP2;ratioP2;P2;SDS_P1;SDS_P2;PMS_P1;PMS_P2;Temp;Humidity;BMP_temperature;BMP_pressure;BME280_temperature;BME280_humidity;BME280_pressure;Samples;Min_cycle;Max_cycle;Signal;HPM_P1;HPM_P2
2022/05/02 00:01:30;;;;;;;28.45;22.23;;;;;;;4.89;100.00;161845.09;5028994;28;20116;-56
2022/05/02 00:03:56;;;;;;;27.05;20.35;;;;;;;4.84;100.00;161831.69;5030508;28;20032;-56
2022/05/02 00:06:21;;;;;;;25.42;19.35;;;;;;;4.79;100.00;161818.25;5029490;28;20033;-56
2022/05/02 00:08:46;;;;;;;22.48;19.50;;;;;;;4.72;100.00;161802.13;5030487;28;20366;-56
2022/05/02 00:11:12;;;;;;;28.67;22.17;;;;;;;4.66;100.00;161784.63;5028641;28;20041;-56
2022/05/02 00:13:38;;;;;;;28.15;23.02;;;;;;;4.55;100.00;161756.38;5030742;28;20518;-56
2022/05/02 00:16:06;;;;;;;33.03;23.25;;;;;;;4.44;100.00;161729.47;5029553;28;20037;-55
2022/05/02 00:18:31;;;;;;;34.58;23.05;;;;;;;4.34;100.00;161701.25;5030081;28;20430;-55
2022/05/02 00:20:57;;;;;;;46.80;23.73;;;;;;;4.23;100.00;161674.41;5029146;28;20041;-55
2022/05/02 00:23:22;;;;;;;26.67;21.70;;;;;;;4.15;100.00;161651.50;5030823;28;20373;-55
2022/05/02 00:25:47;;;;;;;29.20;23.48;;;;;;;4.05;100.00;161627.38;5028857;28;20045;-55
2022/05/02 00:28:14;;;;;;;26.33;20.38;;;;;;;4.00;100.00;161613.88;5030561;28;20026;-55
2022/05/02 00:30:39;;;;;;;28.10;23.60;;;;;;;3.91;100.00;161589.75;5028866;28;20046;-55
2022/05/02 00:33:05;;;;;;;28.05;24.20;;;;;;;3.89;100.00;161584.34;5030111;28;20022;-55
2022/05/02 00:35:30;;;;;;;33.00;24.23;;;;;;;3.92;100.00;161593.75;5029105;28;20064;-55
2022/05/02 00:37:56;;;;;;;26.75;20.42;;;;;;;3.94;100.00;161597.78;5030413;28;20025;-55
2022/05/02 00:40:21;;;;;;;21.42;18.33;;;;;;;3.85;100.00;161574.94;5030227;28;20026;-55
2022/05/02 00:42:48;;;;;;;26.20;20.13;;;;;;;3.88;100.00;161581.66;5028579;28;20061;-55
2022/05/02 00:45:15;;;;;;;21.73;18.05;;;;;;;3.85;100.00;161573.56;5030819;28;20112;-55
2022/05/02 00:47:41;;;;;;;21.45;19.25;;;;;;;3.83;100.00;161568.22;5028359;28;20037;-55
2022/05/02 00:50:09;;;;;;;20.48;18.35;;;;;;;3.78;100.00;161557.44;5030622;28;20612;-55
2022/05/02 00:52:34;;;;;;;21.83;18.88;;;;;;;3.78;100.00;161556.13;5031709;28;20458;-56
2022/05/02 00:55:02;;;;;;;25.00;21.77;;;;;;;3.72;100.00;161540.00;5033685;28;20021;-56
2022/05/02 00:57:27;;;;;;;25.77;22.90;;;;;;;3.76;100.00;161552.06;5032441;28;20520;-57
2022/05/02 00:59:53;;;;;;;29.67;24.75;;;;;;;3.70;100.00;161535.94;5033936;28;20036;-56
2022/05/02 01:02:18;;;;;;;27.10;20.42;;;;;;;3.63;100.00;161518.50;5031790;28;20037;-57
2022/05/02 01:04:44;;;;;;;26.10;21.10;;;;;;;3.64;100.00;161519.84;5033792;28;20036;-57
2022/05/02 01:07:11;;;;;;;27.20;21.83;;;;;;;3.69;100.00;161533.25;5032157;28;20057;-56
2022/05/02 01:09:42;;;;;;;29.15;23.13;;;;;;;3.60;100.00;161509.09;5033788;28;20017;-56
2022/05/02 01:12:25;;;;;;;30.13;22.88;;;;;;;3.51;100.00;161484.91;5031835;28;20045;-56
2022/05/02 01:14:53;;;;;;;25.23;21.95;;;;;;;3.44;100.00;161468.81;5033665;28;20492;-56
2022/05/02 01:17:19;;;;;;;35.10;23.45;;;;;;;3.43;100.00;161466.09;5031894;28;20041;-56
2022/05/02 01:19:45;;;;;;;26.75;21.05;;;;;;;3.44;100.00;161468.81;5033249;28;20527;-56
2022/05/02 01:22:10;;;;;;;21.88;18.83;;;;;;;3.43;100.00;161466.09;5031854;28;20072;-56
2022/05/02 01:24:41;;;;;;;25.65;19.35;;;;;;;3.38;100.00;161452.69;5032852;28;20079;-56
2022/05/02 01:27:08;;;;;;;25.98;21.10;;;;;;;3.38;100.00;161452.69;5032037;28;20551;-56
2022/05/02 01:29:36;;;;;;;24.23;21.30;;;;;;;3.40;100.00;161456.69;5033422;28;20025;-57
2022/05/02 01:32:07;;;;;;;30.38;20.13;;;;;;;3.44;100.00;161467.44;5031043;28;20045;-56
2022/05/02 01:34:40;;;;;;;27.02;21.23;;;;;;;3.38;100.00;161452.69;5033025;28;20465;-56
2022/05/02 01:37:07;;;;;;;30.42;23.83;;;;;;;3.35;100.00;161444.59;5031848;28;20129;-56
2022/05/02 01:39:32;;;;;;;26.00;21.80;;;;;;;3.29;100.00;161428.50;5032556;28;20036;-57
2022/05/02 01:42:01;;;;;;;30.92;24.20;;;;;;;3.39;100.00;161455.34;5031567;28;20046;-56
2022/05/02 01:44:27;;;;;;;28.70;23.35;;;;;;;3.43;100.00;161466.09;5032979;28;20026;-56
2022/05/02 01:46:53;;;;;;;28.98;22.23;;;;;;;3.41;100.00;161459.41;5031217;28;20177;-56
2022/05/02 01:49:19;;;;;;;26.25;21.38;;;;;;;3.48;100.00;161478.22;5033369;28;20063;-56
2022/05/02 01:51:44;;;;;;;26.98;23.48;;;;;;;3.54;100.00;161493.00;5030795;28;20072;-56
2022/05/02 01:54:09;;;;;;;29.75;22.75;;;;;;;3.63;100.00;161518.50;5032757;28;20093;-56
2022/05/02 01:56:35;;;;;;;24.73;22.13;;;;;;;3.72;100.00;161541.34;5031311;28;20041;-57
2022/05/02 01:59:01;;;;;;;28.83;25.17;;;;;;;3.81;100.00;161565.53;5033043;28;20385;-56
2022/05/02 02:01:26;;;;;;;26.85;23.55;;;;;;;3.92;100.00;161593.75;5030823;28;20046;-56
2022/05/02 02:03:52;;;;;;;26.70;22.65;;;;;;;3.99;100.00;161609.88;5031292;28;20493;-57
2022/05/02 02:06:17;;;;;;;20.00;17.90;;;;;;;4.01;100.00;161616.59;5031182;28;20056;-56
2022/05/02 02:08:42;;;;;;;21.92;19.48;;;;;;;3.95;100.00;161600.47;5032471;28;20025;-57
2022/05/02 02:11:10;;;;;;;24.50;20.73;;;;;;;3.89;100.00;161584.34;5031040;28;20033;-56
2022/05/02 02:13:37;;;;;;;24.58;21.85;;;;;;;3.95;100.00;161600.47;5031895;28;20388;-56
2022/05/02 02:16:07;;;;;;;28.42;21.98;;;;;;;3.89;100.00;161584.34;5031283;28;20048;-56
2022/05/02 02:18:33;;;;;;;23.77;21.17;;;;;;;3.93;100.00;161595.06;5032509;28;20032;-56
2022/05/02 02:20:58;;;;;;;27.00;22.35;;;;;;;3.89;100.00;161584.34;5031316;28;20389;-56
2022/05/02 02:23:24;;;;;;;30.73;24.35;;;;;;;3.90;100.00;161588.38;5032396;28;20079;-57
2022/05/02 02:25:50;;;;;;;29.83;26.63;;;;;;;3.96;100.00;161603.16;5030661;28;20037;-57
2022/05/02 02:28:16;;;;;;;26.85;22.00;;;;;;;4.05;100.00;161627.38;5032105;28;20044;-57
2022/05/02 02:30:45;;;;;;;28.30;23.67;;;;;;;4.09;100.00;161638.09;5030579;28;20469;-57
2022/05/02 02:33:10;;;;;;;;;;;;;;;4.18;100.00;161659.59;5032360;28;20022;-57
2022/05/02 02:35:36;;;;;;;31.55;25.85;;;;;;;4.26;100.00;161681.13;5030692;28;19939;-57
2022/05/02 02:38:02;;;;;;;24.17;21.65;;;;;;;4.37;100.00;161710.66;5032139;28;20014;-57
2022/05/02 02:40:28;;;;;;;35.90;26.75;;;;;;;4.34;100.00;161702.63;5030289;28;20022;-57
2022/05/02 02:42:53;;;;;;;28.08;24.10;;;;;;;4.36;100.00;161707.97;5031765;28;20021;-56
2022/05/02 02:45:19;;;;;;;29.17;24.27;;;;;;;4.41;100.00;161721.44;5032184;28;20021;-57
2022/05/02 02:47:44;;;;;;;30.30;23.85;;;;;;;4.48;100.00;161737.56;5029949;28;20052;-56
2022/05/02 02:50:10;;;;;;;31.10;23.23;;;;;;;4.56;100.00;161760.41;5031984;28;20412;-56
2022/05/02 02:52:36;;;;;;;27.75;23.35;;;;;;;4.67;100.00;161788.63;5029974;28;20041;-56
2022/05/02 02:55:02;;;;;;;29.75;23.83;;;;;;;4.65;100.00;161783.28;5031300;28;20045;-57
2022/05/02 02:57:27;;;;;;;26.08;21.13;;;;;;;4.64;100.00;161780.59;5029988;28;20049;-57
2022/05/02 02:59:53;;;;;;;26.27;22.05;;;;;;;4.66;100.00;161785.94;5031798;28;20033;-56
2022/05/02 03:02:18;;;;;;;28.63;23.52;;;;;;;4.66;100.00;161785.94;5029768;28;20046;-57
2022/05/02 03:07:28;;;;;;;29.65;24.50;;;;;;;4.71;100.00;161798.06;5029772;28;20118;-57
2022/05/02 03:09:53;;;;;;;29.17;24.65;;;;;;;4.76;100.00;161811.53;5031299;28;20065;-57
2022/05/02 03:12:20;;;;;;;33.35;23.13;;;;;;;4.83;100.00;161828.97;5029942;28;20037;-57
2022/05/02 03:14:45;;;;;;;36.05;24.90;;;;;;;4.85;100.00;161834.38;5031104;28;20026;-57
2022/05/02 03:17:11;;;;;;;29.40;25.10;;;;;;;4.82;100.00;161826.28;5029802;28;20042;-57
2022/05/02 03:19:37;;;;;;;29.48;24.27;;;;;;;4.82;100.00;161827.66;5031354;28;20522;-57
2022/05/02 03:22:03;;;;;;;30.10;24.27;;;;;;;4.85;100.00;161834.38;5029706;28;20132;-57
2022/05/02 03:24:29;;;;;;;27.30;23.23;;;;;;;4.87;100.00;161839.78;5030211;28;20140;-57
2022/05/02 03:26:54;;;;;;;24.05;21.65;;;;;;;4.98;100.00;161869.31;5029976;28;20128;-56
2022/05/02 03:29:20;;;;;;;24.15;19.70;;;;;;;4.94;100.00;161858.59;5031666;28;20022;-57
2022/05/02 03:31:45;;;;;;;25.35;21.10;;;;;;;4.83;100.00;161830.34;5029111;28;20044;-56
2022/05/02 03:34:10;;;;;;;27.35;22.90;;;;;;;4.75;100.00;161810.16;5031687;28;20029;-56
2022/05/02 03:36:36;;;;;;;25.52;22.83;;;;;;;4.71;100.00;161799.41;5029084;28;20037;-56
2022/05/02 03:39:02;;;;;;;27.05;23.25;;;;;;;4.72;100.00;161802.13;5030881;28;20022;-56
2022/05/02 03:41:27;;;;;;;33.08;24.77;;;;;;;4.75;100.00;161810.16;5029689;28;20072;-57
2022/05/02 03:43:53;;;;;;;27.75;24.75;;;;;;;4.82;100.00;161827.66;5031311;28;20087;-56
2022/05/02 03:46:18;;;;;;;27.63;24.65;;;;;;;4.90;100.00;161847.81;5029606;28;20037;-56
2022/05/02 03:48:44;;;;;;;29.10;25.02;;;;;;;5.07;100.00;161893.53;5030910;28;20029;-56
2022/05/02 03:51:10;;;;;;;27.33;23.02;;;;;;;5.19;100.00;161923.13;5029502;28;20106;-56
2022/05/02 03:53:35;;;;;;;32.67;22.25;;;;;;;5.25;100.00;161939.25;5030331;28;20408;-57
2022/05/02 03:56:01;;;;;;;27.60;20.88;;;;;;;5.27;100.00;161944.66;5029324;28;20046;-57
2022/05/02 03:58:26;;;;;;;22.50;20.10;;;;;;;5.20;100.00;161925.81;5030790;28;20374;-57
2022/05/02 04:00:51;;;;;;;23.23;18.40;;;;;;;5.07;100.00;161893.53;5028986;28;20049;-57
2022/05/02 04:03:17;;;;;;;30.52;21.40;;;;;;;4.91;100.00;161850.50;5030689;28;20476;-57
2022/05/02 04:05:42;;;;;;;25.02;22.08;;;;;;;4.82;100.00;161826.28;5028850;28;20021;-57
2022/05/02 04:08:07;;;;;;;25.33;22.25;;;;;;;4.78;100.00;161816.88;5030120;28;20396;-56
2022/05/02 04:10:33;;;;;;;28.83;21.52;;;;;;;4.83;100.00;161828.97;5028292;28;20022;-55
2022/05/02 04:12:58;;;;;;;22.90;20.63;;;;;;;4.81;100.00;161823.59;5029372;28;20075;-55
2022/05/02 04:15:23;;;;;;;23.77;19.45;;;;;;;4.72;100.00;161802.13;5029922;28;20022;-52
2022/05/02 04:17:49;;;;;;;27.13;24.23;;;;;;;4.69;100.00;161794.03;5020200;28;20045;-55
2022/05/02 04:20:14;;;;;;;29.15;22.35;;;;;;;4.59;100.00;161767.13;5022629;28;20025;-55
2022/05/02 04:22:40;;;;;;;42.20;25.42;;;;;;;4.56;100.00;161759.09;5020992;28;20478;-55
2022/05/02 04:25:06;;;;;;;37.97;25.58;;;;;;;4.56;100.00;161759.09;5020271;28;20438;-55
2022/05/02 04:27:31;;;;;;;32.85;23.73;;;;;;;4.54;100.00;161753.69;5026766;28;20120;-55
2022/05/02 04:29:57;;;;;;;25.30;22.55;;;;;;;4.45;100.00;161732.19;5022801;28;20057;-55
2022/05/02 04:32:22;;;;;;;30.80;24.25;;;;;;;4.44;100.00;161729.47;5022849;28;20033;-55
2022/05/02 04:34:48;;;;;;;26.45;23.58;;;;;;;4.43;100.00;161725.47;5024254;28;20172;-55
2022/05/02 04:37:13;;;;;;;41.53;23.67;;;;;;;4.47;100.00;161736.19;5021391;28;20049;-55
2022/05/02 04:39:39;;;;;;;28.50;24.23;;;;;;;4.52;100.00;161748.31;5022840;28;20029;-55
2022/05/02 04:42:05;;;;;;;59.40;48.45;;;;;;;4.58;100.00;161764.44;5022626;28;20037;-55
2022/05/02 04:44:31;;;;;;;38.97;29.58;;;;;;;4.62;100.00;161775.22;5024163;28;20018;-55
2022/05/02 04:46:56;;;;;;;37.15;29.08;;;;;;;4.64;100.00;161779.22;5023709;28;20041;-55
2022/05/02 04:49:21;;;;;;;28.48;24.42;;;;;;;4.66;100.00;161785.94;5023419;28;20029;-55
2022/05/02 04:51:47;;;;;;;26.75;22.67;;;;;;;4.65;100.00;161781.91;5021361;28;20061;-55
2022/05/02 04:54:12;;;;;;;31.52;22.42;;;;;;;4.54;100.00;161753.69;5024953;28;20030;-55
2022/05/02 04:56:38;;;;;;;28.30;22.52;;;;;;;4.43;100.00;161725.47;5026716;28;20034;-55
2022/05/02 04:59:03;;;;;;;29.55;22.85;;;;;;;4.39;100.00;161716.06;5034030;28;20542;-55
2022/05/02 05:01:29;;;;;;;28.45;25.33;;;;;;;4.45;100.00;161730.84;5027819;28;20479;-55
2022/05/02 05:03:54;;;;;;;34.63;24.17;;;;;;;4.51;100.00;161745.59;5023732;28;20469;-55
2022/05/02 05:06:19;;;;;;;33.65;25.02;;;;;;;4.60;100.00;161769.81;5021262;28;20038;-55
2022/05/02 05:08:45;;;;;;;41.30;26.20;;;;;;;4.75;100.00;161810.16;5027366;28;20041;-55
2022/05/02 05:11:29;;;;;;;55.65;27.25;;;;;;;5.03;100.00;161881.44;5032150;28;20493;-55
2022/05/02 05:17:01;;;;;;;38.80;23.90;;;;;;;5.44;100.00;161989.03;5021604;28;20080;-55
2022/05/02 05:20:03;;;;;;;30.60;22.25;;;;;;;5.56;100.00;162021.34;5023209;28;20018;-55
2022/05/02 05:22:51;;;;;;;41.97;24.50;;;;;;;5.68;100.00;162052.28;5021698;28;20034;-54
2022/05/02 05:25:34;;;;;;;35.20;23.10;;;;;;;5.79;100.00;162079.16;5024531;28;20029;-54
2022/05/02 05:28:20;;;;;;;25.38;22.05;;;;;;;5.91;100.00;162111.50;5021041;28;20509;-53
2022/05/02 05:30:50;;;;;;;31.45;23.42;;;;;;;6.08;100.00;162154.56;5021014;28;20042;-53
2022/05/02 05:33:41;;;;;;;32.72;25.60;;;;;;;6.24;100.00;162197.66;5021897;28;20461;-52
2022/05/02 05:37:07;;;;;;;23.80;21.48;;;;;;;6.50;100.00;162264.97;5021357;28;20058;-52
2022/05/02 05:40:18;;;;;;;26.05;21.00;;;;;;;6.71;100.00;162318.81;4973801;28;20038;-53
2022/05/02 05:43:04;;;;;;;27.55;22.42;;;;;;;6.88;100.00;162364.63;4970354;28;20039;-53
2022/05/02 05:45:56;;;;;;;26.60;20.35;;;;;;;7.11;100.00;162423.88;5001011;28;20457;-53
2022/05/02 05:48:29;;;;;;;21.13;17.17;;;;;;;7.26;100.00;162464.22;5003617;28;20061;-53
2022/05/02 05:51:12;;;;;;;23.63;18.67;;;;;;;7.42;100.00;162506.03;5005517;28;20042;-53
2022/05/02 05:53:52;;;;;;;19.17;17.08;;;;;;;7.57;100.00;162545.06;5025854;28;20059;-52
2022/05/02 05:56:38;;;;;;;18.48;16.58;;;;;;;7.69;100.00;162576.06;5019004;28;20053;-53
2022/05/02 05:59:08;;;;;;;23.80;17.13;;;;;;;7.84;100.00;162615.16;5020870;28;20033;-53
2022/05/02 06:01:58;;;;;;;25.83;16.50;;;;;;;8.02;100.00;162660.94;5019287;28;20045;-53
2022/05/02 06:04:26;;;;;;;20.30;16.95;;;;;;;8.16;100.00;162698.66;5017845;28;20307;-53
2022/05/02 06:06:53;;;;;;;18.75;16.42;;;;;;;8.33;100.00;162741.81;5021311;28;20141;-53
2022/05/02 06:09:20;;;;;;;20.25;15.45;;;;;;;8.45;100.00;162774.13;5022778;28;20029;-53
2022/05/02 06:11:46;;;;;;;18.27;14.93;;;;;;;8.53;100.00;162795.75;5024692;28;20042;-53
2022/05/02 06:14:13;;;;;;;17.75;14.70;;;;;;;8.78;100.00;162860.50;5027277;28;20033;-54
2022/05/02 06:19:28;;;;;;;15.30;13.02;;;;;;;9.11;100.00;162946.81;5022983;28;20052;-52
2022/05/02 06:21:55;;;;;;;16.45;13.40;;;;;;;9.31;100.00;162998.03;5020082;28;20401;-53
2022/05/02 06:24:25;;;;;;;17.50;14.43;;;;;;;9.53;100.00;163057.38;5021532;28;20018;-53
2022/05/02 06:26:51;;;;;;;18.15;14.35;;;;;;;9.75;100.00;163112.72;5019371;28;20045;-53
2022/05/02 06:29:18;;;;;;;16.35;11.88;;;;;;;9.92;100.00;163157.22;5024272;28;20030;-54
2022/05/02 06:31:46;;;;;;;14.80;11.43;;;;;;;10.03;100.00;163186.88;5022176;28;20057;-53
2022/05/02 06:34:13;;;;;;;17.02;13.75;;;;;;;10.14;100.00;163215.22;5031582;28;20485;-54
2022/05/02 06:37:02;;;;;;;14.80;11.40;;;;;;;10.37;100.00;163276.03;5029278;28;20096;-52
2022/05/02 06:39:59;;;;;;;14.40;11.20;;;;;;;10.51;100.00;163311.09;5031321;28;20596;-53
2022/05/02 06:42:37;;;;;;;21.45;11.68;;;;;;;10.59;100.00;163334.03;5029407;28;20045;-53
2022/05/02 06:45:18;;;;;;;15.70;11.20;;;;;;;10.71;100.00;163365.09;5031018;28;20021;-54
2022/05/02 06:47:56;;;;;;;11.48;9.73;;;;;;;10.69;100.00;163359.66;5029093;28;21028;-54
2022/05/02 06:50:25;;;;;;;13.52;11.20;;;;;;;10.93;100.00;163421.78;5029717;28;20025;-54
2022/05/02 06:52:59;;;;;;;;;;;;;;;11.45;100.00;163556.81;5008441;28;20042;-54
2022/05/02 06:55:39;;;;;;;15.30;9.38;;;;;;;12.56;100.00;163848.66;5002807;28;19917;-55
2022/05/02 06:58:35;;;;;;;13.18;11.23;;;;;;;13.83;100.00;164181.31;5020745;28;20034;-54
2022/05/02 07:01:38;;;;;;;9.25;8.35;;;;;;;14.79;100.00;164432.97;5016392;28;20049;-53
2022/05/02 07:04:24;;;;;;;10.68;7.82;;;;;;;15.10;100.00;164514.19;4970315;28;20053;-54
2022/05/02 07:07:10;;;;;;;10.93;7.90;;;;;;;15.26;100.00;164554.78;5008105;28;20041;-54
2022/05/02 07:09:44;;;;;;;10.75;6.97;;;;;;;15.43;100.00;164600.84;5011541;28;20021;-54
2022/05/02 07:12:17;;;;;;;9.45;7.28;;;;;;;15.76;100.00;164687.47;5010077;28;20061;-55
2022/05/02 07:15:00;;;;;;;10.98;8.27;;;;;;;16.05;100.00;164763.31;5011623;28;20389;-54
2022/05/02 07:17:58;;;;;;;8.73;7.43;;;;;;;15.60;100.00;164644.16;5009920;28;20049;-54
2022/05/02 07:20:49;;;;;;;12.57;7.15;;;;;;;15.80;100.00;164698.31;5008347;28;20112;-54
2022/05/02 07:23:40;;;;;;;11.82;7.25;;;;;;;15.80;100.00;164696.94;5010546;28;20065;-54
2022/05/02 07:26:14;;;;;;;8.98;7.93;;;;;;;16.15;100.00;164790.44;5010269;28;20049;-54
2022/05/02 07:28:50;;;;;;;16.02;8.20;;;;;;;16.10;100.00;164776.91;5011222;28;20030;-54
2022/05/02 07:31:22;;;;;;;16.25;8.45;;;;;;;15.76;100.00;164687.47;5010029;28;20038;-54
2022/05/02 07:33:50;;;;;;;17.35;9.63;;;;;;;15.73;100.00;164679.38;5009816;28;20084;-54
2022/05/02 07:36:19;;;;;;;11.88;8.35;;;;;;;15.69;100.00;164668.50;5009480;28;20041;-54
2022/05/02 07:38:47;;;;;;;10.88;8.10;;;;;;;15.72;97.58;164676.66;5011222;28;20022;-53
2022/05/02 07:41:23;;;;;;;12.25;8.68;;;;;;;15.27;97.71;164557.50;5009703;28;20052;-53
2022/05/02 07:43:50;;;;;;;11.35;9.63;;;;;;;15.28;100.00;164560.22;5010033;28;20017;-52
2022/05/02 07:46:43;;;;;;;13.88;8.68;;;;;;;15.54;100.00;164630.59;5009214;28;20048;-53
2022/05/02 07:49:10;;;;;;;17.63;8.32;;;;;;;15.62;98.78;164649.53;5010878;28;20026;-54
2022/05/02 07:51:42;;;;;;;16.00;9.10;;;;;;;15.56;100.00;164634.69;5008521;28;20057;-54
2022/05/02 07:54:12;;;;;;;8.73;7.72;;;;;;;15.05;99.86;164500.66;5010646;28;20033;-53
2022/05/02 07:56:40;;;;;;;12.20;8.25;;;;;;;15.10;100.00;164514.19;5008776;28;20057;-51
2022/05/02 07:59:07;;;;;;;11.80;8.13;;;;;;;15.20;98.08;164541.28;5011017;28;20061;-53
2022/05/02 08:01:32;;;;;;;26.63;10.25;;;;;;;15.33;97.93;164573.75;5011190;28;20096;-54
2022/05/02 08:03:58;;;;;;;12.27;7.10;;;;;;;15.69;96.96;164668.50;5010891;28;20045;-52
2022/05/02 08:06:48;;;;;;;13.57;7.10;;;;;;;15.91;93.05;164725.41;5013514;28;20046;-53
2022/05/02 08:09:41;;;;;;;12.45;9.13;;;;;;;15.78;90.65;164692.88;5014179;28;20029;-54
2022/05/02 08:12:29;;;;;;;10.60;7.50;;;;;;;15.71;93.43;164673.94;5013035;28;20092;-53
2022/05/02 08:15:19;;;;;;;26.33;13.32;;;;;;;15.29;91.35;164562.94;5015711;28;20096;-54
2022/05/02 08:18:01;;;;;;;8.13;7.07;;;;;;;15.20;91.60;164541.28;5013334;28;20045;-54
2022/05/02 08:20:35;;;;;;;12.43;7.35;;;;;;;15.13;91.75;164522.31;5013016;28;20029;-54
2022/05/02 08:29:34;;;;;;;9.27;8.37;;;;;;;15.46;90.59;164608.94;5014781;28;19916;-53
2022/05/02 08:32:10;;;;;;;11.23;7.55;;;;;;;16.06;91.04;164766.03;5013004;28;20057;-54
2022/05/02 08:34:38;;;;;;;7.82;7.00;;;;;;;16.43;85.67;164862.22;5014207;28;20504;-53
2022/05/02 08:37:35;;;;;;;11.32;9.30;;;;;;;16.74;84.00;164943.50;5013253;28;20121;-54
2022/05/02 08:40:19;;;;;;;10.32;8.02;;;;;;;16.43;84.56;164863.56;5014576;28;20026;-53
2022/05/02 08:43:02;;;;;;;13.07;7.57;;;;;;;16.24;85.65;164812.09;5012534;28;20037;-54
2022/05/02 08:46:02;;;;;;;10.02;9.02;;;;;;;16.59;86.05;164905.59;5012839;28;20104;-54
2022/05/02 08:48:46;;;;;;;8.85;7.97;;;;;;;16.60;81.56;164906.91;5013902;28;20036;-54
2022/05/02 08:51:37;;;;;;;13.30;8.18;;;;;;;16.47;82.46;164874.41;5008253;28;20126;-54
2022/05/02 08:54:18;;;;;;;11.05;7.30;;;;;;;16.85;82.45;164973.28;5008559;28;20029;-53
2022/05/02 08:57:20;;;;;;;9.85;6.68;;;;;;;16.12;81.13;164782.28;5012561;28;20924;-54
2022/05/02 09:00:04;;;;;;;16.33;7.18;;;;;;;16.07;81.63;164767.44;5014032;28;20073;-53
2022/05/02 09:02:42;;;;;;;10.85;6.50;;;;;;;16.68;86.28;164928.59;5012454;28;20087;-53
2022/05/02 09:05:38;;;;;;;13.17;9.17;;;;;;;16.67;81.96;164924.53;5013947;28;20064;-53
2022/05/02 09:08:18;;;;;;;8.63;5.55;;;;;;;16.98;80.03;165007.22;5032460;28;20412;-53
2022/05/02 09:11:33;;;;;;;14.50;9.55;;;;;;;16.87;82.23;164977.34;5031491;28;20095;-53
2022/05/02 09:14:32;;;;;;;8.45;7.30;;;;;;;17.17;79.78;165057.38;5027861;28;20033;-52
2022/05/02 09:17:43;;;;;;;12.05;6.93;;;;;;;18.13;78.87;165308.19;5034359;28;20090;-53
2022/05/02 09:20:15;;;;;;;8.02;6.78;;;;;;;18.42;76.12;165384.09;5032920;28;20049;-53
2022/05/02 09:23:17;;;;;;;10.13;8.05;;;;;;;18.94;79.88;165522.50;5030553;28;20037;-53
2022/05/02 09:26:06;;;;;;;7.38;6.05;;;;;;;19.22;75.96;165595.72;5026533;28;20051;-54
2022/05/02 09:28:53;;;;;;;8.48;6.70;;;;;;;19.10;71.48;165563.19;5003506;28;20032;-53
2022/05/02 09:32:03;;;;;;;7.97;6.63;;;;;;;19.15;74.34;165576.75;5015342;28;20512;-53
2022/05/02 09:34:38;;;;;;;10.68;8.02;;;;;;;19.11;72.11;165567.25;5007999;28;20042;-52
2022/05/02 09:37:06;;;;;;;16.58;5.65;;;;;;;19.18;74.22;165584.84;5022424;28;20045;-53
2022/05/02 09:39:52;;;;;;;8.48;7.10;;;;;;;19.50;76.88;165668.97;5024227;28;20017;-54
2022/05/02 09:42:38;;;;;;;10.38;7.65;;;;;;;19.42;71.98;165647.25;5025410;28;20267;-54
2022/05/02 09:51:44;;;;;;;9.75;7.28;;;;;;;19.64;72.02;165705.63;5033095;28;20519;-53
2022/05/02 09:57:17;;;;;;;7.68;6.70;;;;;;;18.48;71.64;165401.72;5014542;28;20104;-53
2022/05/02 09:59:48;;;;;;;10.85;6.43;;;;;;;18.45;71.09;165393.59;5025940;28;20026;-54
2022/05/02 10:02:20;;;;;;;16.48;7.57;;;;;;;18.60;74.14;165432.91;5018866;28;20513;-53
2022/05/02 10:05:05;;;;;;;14.98;7.18;;;;;;;18.26;70.47;165343.44;5015978;28;20041;-54
2022/05/02 10:07:40;;;;;;;11.43;7.38;;;;;;;18.53;72.28;165413.91;5010307;28;20045;-53
2022/05/02 10:10:30;;;;;;;8.98;7.32;;;;;;;18.85;74.13;165498.00;5012114;28;20025;-53
2022/05/02 10:13:19;;;;;;;8.70;7.80;;;;;;;19.42;76.08;165648.66;5017511;28;20350;-53
2022/05/02 10:16:22;;;;;;;9.45;7.60;;;;;;;19.88;74.04;165769.44;5012296;28;20371;-53
2022/05/02 10:19:16;;;;;;;7.82;7.03;;;;;;;18.91;68.24;165512.94;5029977;28;20041;-53
2022/05/02 10:22:08;;;;;;;9.25;7.85;;;;;;;18.77;67.96;165476.31;5022850;28;20049;-53
2022/05/02 10:24:48;;;;;;;12.32;8.95;;;;;;;18.31;68.55;165355.63;5030917;28;20017;-52
2022/05/02 10:27:58;;;;;;;10.57;9.40;;;;;;;18.03;69.01;165282.38;5030972;28;20049;-55
2022/05/02 10:30:29;;;;;;;10.40;8.68;;;;;;;17.85;70.44;165234.88;5031382;28;20044;-54
2022/05/02 10:32:56;;;;;;;10.68;8.30;;;;;;;17.87;68.85;165240.31;5016836;28;20045;-54
2022/05/02 10:35:27;;;;;;;12.25;9.15;;;;;;;17.82;68.46;165226.78;5011866;28;20462;-54
2022/05/02 10:37:59;;;;;;;11.95;8.43;;;;;;;18.35;69.06;165367.84;5014083;28;20090;-53
2022/05/02 10:40:37;;;;;;;12.30;7.03;;;;;;;18.70;69.15;165460.03;5030646;28;20021;-54
2022/05/02 10:43:08;;;;;;;10.68;8.57;;;;;;;18.44;67.90;165389.50;5030888;28;20033;-54
2022/05/02 10:45:36;;;;;;;14.13;8.45;;;;;;;18.74;69.26;165468.16;5030661;28;20051;-53
2022/05/02 10:48:15;;;;;;;10.15;7.90;;;;;;;18.98;69.82;165533.31;5032087;28;20024;-54
2022/05/02 10:50:44;;;;;;;9.10;8.18;;;;;;;19.59;72.78;165692.03;5030438;28;20473;-54
2022/05/02 10:53:15;;;;;;;9.95;8.80;;;;;;;19.92;68.90;165780.28;5031543;28;20025;-54
2022/05/02 10:55:56;;;;;;;9.98;8.95;;;;;;;20.00;66.17;165799.28;5030160;28;20447;-53
2022/05/02 10:58:22;;;;;;;9.70;8.70;;;;;;;19.59;66.47;165692.03;5032036;28;20040;-54
2022/05/02 11:01:16;;;;;;;11.93;7.63;;;;;;;19.83;66.89;165755.84;5029969;28;20049;-54
2022/05/02 11:04:22;;;;;;;13.88;8.15;;;;;;;19.81;68.46;165750.41;5031536;28;20075;-54
2022/05/02 11:07:00;;;;;;;11.43;7.35;;;;;;;19.61;65.72;165697.47;5011690;28;20050;-54
2022/05/02 11:09:41;;;;;;;21.55;11.52;;;;;;;18.80;64.87;165484.47;5011390;28;20030;-54
2022/05/02 11:12:13;;;;;;;15.95;9.85;;;;;;;17.73;66.27;165205.09;5010283;28;20041;-55
2022/05/02 11:15:01;;;;;;;10.40;9.10;;;;;;;17.54;70.90;165153.56;5011703;28;20025;-55
2022/05/02 11:17:55;;;;;;;15.75;10.05;;;;;;;17.66;66.81;165184.72;5009756;28;20493;-54
2022/05/02 11:20:43;;;;;;;10.98;9.10;;;;;;;18.08;67.14;165295.97;5011290;28;20018;-55
2022/05/02 11:23:27;;;;;;;;;;;;;;;18.78;67.46;165479.03;5030726;28;20124;-55
2022/05/02 11:26:27;;;;;;;13.30;9.43;;;;;;;19.26;67.58;165605.22;5029531;28;19913;-55
2022/05/02 11:29:10;;;;;;;12.07;9.52;;;;;;;19.62;68.61;165701.53;5024399;28;20064;-54
2022/05/02 11:31:56;;;;;;;9.82;8.65;;;;;;;19.68;66.95;165715.13;5019817;28;20041;-55
2022/05/02 11:34:54;;;;;;;11.57;8.27;;;;;;;19.24;69.85;165601.16;5022051;28;20025;-54
2022/05/02 11:37:52;;;;;;;10.65;9.52;;;;;;;19.05;67.16;165549.59;5020651;28;20119;-55
2022/05/02 11:40:22;;;;;;;18.27;10.80;;;;;;;18.65;66.92;165446.44;5021584;28;20021;-55
2022/05/02 11:42:48;;;;;;;11.13;9.50;;;;;;;18.07;70.62;165294.59;5021793;28;20042;-54
2022/05/02 11:45:17;;;;;;;10.90;9.50;;;;;;;18.23;73.39;165335.28;5030673;28;20392;-55
2022/05/02 11:47:51;;;;;;;12.63;8.60;;;;;;;18.14;71.76;165310.84;5028308;28;20041;-55
2022/05/02 11:50:26;;;;;;;10.80;9.02;;;;;;;17.91;70.03;165252.53;5011087;28;20500;-55
2022/05/02 11:52:53;;;;;;;11.10;9.20;;;;;;;17.80;71.21;165221.34;5009860;28;20292;-54
2022/05/02 11:55:26;;;;;;;13.43;10.60;;;;;;;18.06;74.63;165291.88;5010777;28;20104;-54
2022/05/02 11:58:07;;;;;;;11.98;8.90;;;;;;;18.74;71.23;165468.16;5009899;28;20069;-54
2022/05/02 12:00:37;;;;;;;10.98;8.80;;;;;;;18.89;72.36;165508.84;5015422;28;20103;-54
2022/05/02 12:03:21;;;;;;;15.32;10.68;;;;;;;19.38;71.79;165636.44;5030774;28;20096;-53
2022/05/02 12:05:52;;;;;;;8.95;8.05;;;;;;;19.79;67.97;165746.34;5029140;28;20052;-55
2022/05/02 12:08:34;;;;;;;11.82;7.75;;;;;;;20.06;68.24;165816.94;5030972;28;20026;-54
2022/05/02 12:11:11;;;;;;;13.85;8.98;;;;;;;20.09;66.40;165825.09;5029189;28;20041;-54